Terminal Aerodrome Forecast
Issued by NWS Grand Forks, ND

Home | Current Version | Previous Version | Text Only | Print | Product List | Glossary On
Versions: 1 2 3 4 5 6 7 8 9 10 11 12 13 14 15 16 17 18
000
FTUS43 KFGF 080520
TAFGFK
TAF
KGFK 080520Z 0806/0906 19008KT P6SM BKN250
     FM081200 20006KT P6SM VCTS BKN080CB
     FM081600 23008KT P6SM BKN080
     FM082100 32008KT P6SM VCSH BKN050
     FM090100 VRB03KT P6SM SCT250=

USA.gov is the U.S. government's official web portal to all federal, state and local government web resources and services.